createdAt,value
2018-04-23T00:00:11.050Z,44.51
2018-04-23T00:00:43.067Z,43.93
2018-04-23T00:01:15.122Z,44.42
2018-04-23T00:01:47.172Z,44.42
2018-04-23T00:02:19.169Z,44.42
2018-04-23T00:02:51.179Z,44.51
2018-04-23T00:03:23.276Z,44.42
2018-04-23T00:03:55.308Z,44.51
2018-04-23T00:04:27.281Z,44.6
2018-04-23T00:04:59.321Z,44.12
2018-04-23T00:05:31.458Z,44.51
2018-04-23T00:06:03.475Z,44.51
2018-04-23T00:06:35.473Z,44.22
2018-04-23T00:07:07.631Z,44.6
2018-04-23T00:07:39.652Z,44.7
2018-04-23T00:08:11.681Z,44.51
2018-04-23T00:08:43.672Z,44.8
2018-04-23T00:09:15.689Z,44.7
2018-04-23T00:09:47.686Z,44.6
2018-04-23T00:10:19.804Z,44.51
2018-04-23T00:10:51.829Z,44.51
2018-04-23T00:11:23.891Z,44.7
2018-04-23T00:11:55.889Z,44.7
2018-04-23T00:12:27.958Z,44.7
2018-04-23T00:12:59.974Z,44.7
2018-04-23T00:13:32.000Z,44.7
2018-04-23T00:14:03.995Z,44.12
2018-04-23T00:14:36.018Z,44.7
2018-04-23T00:15:08.025Z,44.51
2018-04-23T00:15:40.064Z,44.7
2018-04-23T00:16:12.105Z,44.6
2018-04-23T00:16:44.125Z,44.6
2018-04-23T00:17:16.269Z,44.22
2018-04-23T00:17:48.319Z,44.51
2018-04-23T00:18:20.328Z,44.32
2018-04-23T00:18:52.387Z,44.7
2018-04-23T00:19:24.394Z,44.32
2018-04-23T00:19:56.404Z,44.6
2018-04-23T00:20:28.440Z,44.8
2018-04-23T00:21:00.527Z,44.8
2018-04-23T00:21:32.528Z,44.8
2018-04-23T00:22:04.577Z,44.8
2018-04-23T00:22:36.719Z,44.8
2018-04-23T00:23:08.798Z,44.8
2018-04-23T00:23:40.825Z,44.8
2018-04-23T00:24:12.859Z,44.7
2018-04-23T00:24:44.921Z,44.7
2018-04-23T00:25:17.003Z,44.8
2018-04-23T00:25:49.030Z,44.32
2018-04-23T00:26:21.069Z,44.6
2018-04-23T00:26:53.095Z,44.8
2018-04-23T00:27:25.220Z,44.7
2018-04-23T00:27:57.242Z,44.6
2018-04-23T00:28:29.279Z,44.7
2018-04-23T00:29:01.382Z,44.12
2018-04-23T00:29:33.452Z,44.6
2018-04-23T00:30:05.526Z,44.32
2018-04-23T00:30:37.564Z,44.6
2018-04-23T00:31:09.596Z,44.6
2018-04-23T00:31:41.713Z,44.6
2018-04-23T00:32:14.542Z,44.42
2018-04-23T00:32:46.603Z,44.7
2018-04-23T00:33:18.641Z,44.7
2018-04-23T00:33:50.709Z,44.51
2018-04-23T00:34:22.825Z,44.32
2018-04-23T00:34:54.871Z,44.7
2018-04-23T00:35:26.915Z,44.32
2018-04-23T00:35:58.929Z,44.7
2018-04-23T00:36:30.922Z,44.32
2018-04-23T00:37:02.962Z,44.6
2018-04-23T00:37:34.970Z,44.6
2018-04-23T00:38:06.957Z,44.6
2018-04-23T00:38:39.009Z,44.6
2018-04-23T00:39:11.068Z,44.6
2018-04-23T00:39:43.117Z,44.59
2018-04-23T00:40:15.131Z,44.42
2018-04-23T00:40:47.158Z,44.59
2018-04-23T00:41:19.208Z,44.59
2018-04-23T00:41:51.329Z,44.7
2018-04-23T00:42:23.429Z,44.59
2018-04-23T00:42:55.471Z,44.7
2018-04-23T00:43:27.509Z,44.68
2018-04-23T00:44:00.136Z,44.49
2018-04-23T00:44:32.265Z,44.49
2018-04-23T00:45:04.346Z,44.68
2018-04-23T00:45:36.370Z,44.68
2018-04-23T00:46:08.409Z,44.39
2018-04-23T00:46:40.512Z,44.59
2018-04-23T00:47:12.555Z,44.49
2018-04-23T00:47:44.607Z,44.59
2018-04-23T00:48:17.450Z,44.51
2018-04-23T00:48:49.520Z,44.59
2018-04-23T00:49:21.554Z,44.78
2018-04-23T00:49:53.695Z,44.59
2018-04-23T00:50:25.726Z,44.59
2018-04-23T00:50:57.753Z,44.42
2018-04-23T00:51:29.784Z,44.59
2018-04-23T00:52:01.878Z,44.68
2018-04-23T00:52:33.870Z,44.49
2018-04-23T00:53:05.916Z,44.49
2018-04-23T00:53:37.944Z,44.59
2018-04-23T00:54:09.966Z,44.59
2018-04-23T00:54:42.019Z,45
2018-04-23T00:55:14.063Z,44.49
2018-04-23T00:55:46.098Z,44.49
2018-04-23T00:56:18.137Z,44.51
2018-04-23T00:56:50.157Z,44.49
2018-04-23T00:57:22.142Z,44.87
2018-04-23T00:57:54.162Z,44.49
2018-04-23T00:58:26.222Z,44.39
2018-04-23T00:58:58.272Z,44.87
2018-04-23T00:59:30.258Z,44.87
2018-04-23T01:00:02.316Z,44.78
2018-04-23T01:00:34.349Z,44.97
2018-04-23T01:01:06.362Z,44.87
2018-04-23T01:01:38.413Z,44.97
2018-04-23T01:02:10.467Z,44.87
2018-04-23T01:02:42.515Z,44.78
2018-04-23T01:03:14.565Z,44.97
2018-04-23T01:03:46.625Z,44.87
2018-04-23T01:04:18.671Z,45.07
2018-04-23T01:04:50.692Z,45.07
2018-04-23T01:05:22.702Z,45.07
2018-04-23T01:05:54.780Z,44.97
2018-04-23T01:06:26.819Z,45.17
2018-04-23T01:06:58.867Z,44.87
2018-04-23T01:07:30.886Z,45.26
2018-04-23T01:08:02.889Z,45.26
2018-04-23T01:08:34.877Z,44.97
2018-04-23T01:09:06.863Z,45.17
2018-04-23T01:09:38.930Z,44.78
2018-04-23T01:10:10.973Z,45.17
2018-04-23T01:10:43.892Z,45.26
2018-04-23T01:11:15.933Z,45.26
2018-04-23T01:11:47.939Z,45.07
2018-04-23T01:12:19.984Z,45.26
2018-04-23T01:12:52.008Z,45.17
2018-04-23T01:13:24.075Z,44.87
2018-04-23T01:13:56.677Z,45.26
2018-04-23T01:14:28.706Z,45.07
2018-04-23T01:15:00.741Z,44.97
2018-04-23T01:15:32.800Z,44.68
2018-04-23T01:16:04.838Z,44.78
2018-04-23T01:16:36.851Z,45.26
2018-04-23T01:17:08.887Z,45.26
2018-04-23T01:17:40.886Z,44.87
2018-04-23T01:18:12.930Z,45.26
2018-04-23T01:18:44.960Z,44.78
2018-04-23T01:19:16.988Z,45.36
2018-04-23T01:19:49.012Z,45.26
2018-04-23T01:20:21.072Z,45.26
2018-04-23T01:20:53.083Z,44.68
2018-04-23T01:21:25.088Z,45.26
2018-04-23T01:21:57.120Z,44.78
2018-04-23T01:22:29.170Z,45.17
2018-04-23T01:23:01.252Z,45.26
2018-04-23T01:23:33.302Z,45.36
2018-04-23T01:24:05.344Z,45.26
2018-04-23T01:24:37.392Z,45.26
2018-04-23T01:25:09.445Z,44.78
2018-04-23T01:25:41.482Z,45.17
2018-04-23T01:26:13.492Z,45.17
2018-04-23T01:26:45.471Z,45.26
2018-04-23T01:27:17.510Z,45.26
2018-04-23T01:27:49.597Z,45.36
2018-04-23T01:28:21.645Z,45.26
2018-04-23T01:28:53.668Z,45.36
2018-04-23T01:29:25.682Z,45.26
2018-04-23T01:29:57.782Z,45.26
2018-04-23T01:30:29.832Z,45.26
2018-04-23T01:31:01.868Z,45.17
2018-04-23T01:31:33.875Z,44.68
2018-04-23T01:32:05.946Z,44.59
2018-04-23T01:32:38.002Z,45.26
2018-04-23T01:33:10.014Z,45.26
2018-04-23T01:33:41.998Z,44.59
2018-04-23T01:34:14.051Z,45.36
2018-04-23T01:34:46.079Z,45.26
2018-04-23T01:35:18.120Z,45.36
2018-04-23T01:35:51.082Z,45.26
2018-04-23T01:36:23.080Z,45.17
2018-04-23T01:36:55.148Z,45.45
2018-04-23T01:37:27.184Z,45.26
2018-04-23T01:37:59.206Z,45.26
2018-04-23T01:38:31.228Z,45.55
2018-04-23T01:39:03.271Z,45.17
2018-04-23T01:39:35.282Z,45.36
2018-04-23T01:40:07.296Z,45.65
2018-04-23T01:40:39.323Z,45.26
2018-04-23T01:41:11.336Z,45.36
2018-04-23T01:41:43.366Z,45.17
2018-04-23T01:42:15.343Z,44.87
2018-04-23T01:42:47.371Z,45.14
2018-04-23T01:43:19.434Z,45.26
2018-04-23T01:43:51.476Z,45.17
2018-04-23T01:44:23.495Z,45.17
2018-04-23T01:44:55.547Z,45.26
2018-04-23T01:45:27.604Z,45.14
2018-04-23T01:45:59.645Z,44.97
2018-04-23T01:46:31.664Z,44.87
2018-04-23T01:47:03.709Z,45.26
2018-04-23T01:47:35.755Z,45.07
2018-04-23T01:48:07.770Z,45.17
2018-04-23T01:48:39.845Z,45.17
2018-04-23T01:49:11.898Z,45.17
2018-04-23T01:49:43.932Z,45.17
2018-04-23T01:50:15.923Z,44.95
2018-04-23T01:50:47.920Z,45.26
2018-04-23T01:51:19.963Z,45.26
2018-04-23T01:51:51.939Z,45.43
2018-04-23T01:52:24.108Z,45.62
2018-04-23T01:52:56.155Z,45.07
2018-04-23T01:53:28.183Z,45.53
2018-04-23T01:54:00.701Z,45.53
2018-04-23T01:54:32.708Z,45.55
2018-04-23T01:55:04.785Z,45.55
2018-04-23T01:55:36.788Z,44.95
2018-04-23T01:56:08.823Z,45.43
2018-04-23T01:56:40.845Z,44.95
2018-04-23T01:57:12.891Z,45.53
2018-04-23T01:57:44.899Z,45.34
2018-04-23T01:58:16.953Z,45.43
2018-04-23T01:58:49.010Z,45.53
2018-04-23T01:59:21.065Z,45.43
2018-04-23T01:59:53.049Z,44.95
2018-04-23T02:00:25.059Z,45.55
2018-04-23T02:00:57.094Z,44.97
2018-04-23T02:01:29.125Z,45.17
2018-04-23T02:02:01.163Z,45.45
2018-04-23T02:02:33.308Z,45.53
2018-04-23T02:03:05.384Z,45.43
2018-04-23T02:03:37.419Z,45.34
2018-04-23T02:04:09.461Z,45.24
2018-04-23T02:04:41.449Z,45.43
2018-04-23T02:05:13.445Z,45.24
2018-04-23T02:05:45.441Z,45.36
2018-04-23T02:06:17.615Z,45.34
2018-04-23T02:06:49.756Z,45.53
2018-04-23T02:07:21.752Z,45.34
2018-04-23T02:07:53.748Z,45.43
2018-04-23T02:08:25.820Z,45.72
2018-04-23T02:08:57.900Z,45.43
2018-04-23T02:09:29.890Z,45.45
2018-04-23T02:10:01.923Z,45.34
2018-04-23T02:10:34.027Z,45.24
2018-04-23T02:11:06.048Z,45.36
2018-04-23T02:11:38.048Z,45.24
2018-04-23T02:12:10.070Z,45.72
2018-04-23T02:12:42.114Z,45.24
2018-04-23T02:13:14.175Z,45.62
2018-04-23T02:13:46.684Z,45.43
2018-04-23T02:14:18.709Z,45.43
2018-04-23T02:14:50.752Z,45.24
2018-04-23T02:15:22.772Z,45.43
2018-04-23T02:15:54.800Z,45.43
2018-04-23T02:16:26.824Z,45.14
2018-04-23T02:16:59.521Z,45.14
2018-04-23T02:17:31.537Z,45.24
2018-04-23T02:18:03.571Z,45.43
2018-04-23T02:18:35.552Z,45.43
2018-04-23T02:19:07.598Z,45.43
2018-04-23T02:19:39.712Z,45.53
2018-04-23T02:20:11.800Z,45.53
2018-04-23T02:20:43.846Z,45.14
2018-04-23T02:21:15.915Z,45.53
2018-04-23T02:21:47.943Z,45.14
2018-04-23T02:22:19.981Z,45.43
2018-04-23T02:22:52.030Z,45.43
2018-04-23T02:23:24.091Z,45.53
2018-04-23T02:23:56.125Z,45.53
2018-04-23T02:24:28.115Z,45.14
2018-04-23T02:25:00.166Z,45.43
2018-04-23T02:25:32.139Z,45.53
2018-04-23T02:26:04.141Z,45.53
2018-04-23T02:26:36.263Z,45.62
2018-04-23T02:27:08.267Z,45.43
2018-04-23T02:27:40.297Z,45.43
2018-04-23T02:28:12.336Z,45.43
2018-04-23T02:28:44.368Z,45.53
2018-04-23T02:29:16.373Z,45.34
2018-04-23T02:29:48.418Z,45.34
2018-04-23T02:30:20.473Z,45.53
2018-04-23T02:30:52.499Z,45.53
2018-04-23T02:31:24.556Z,45.62
2018-04-23T02:31:56.589Z,45.43
2018-04-23T02:32:28.597Z,45.62
2018-04-23T02:33:00.632Z,45.62
2018-04-23T02:33:32.675Z,45.62
2018-04-23T02:34:04.688Z,45.72
2018-04-23T02:34:36.717Z,45.62
2018-04-23T02:35:08.786Z,45.72
2018-04-23T02:35:40.918Z,45.62
2018-04-23T02:36:12.960Z,45.62
2018-04-23T02:36:44.969Z,45.62
2018-04-23T02:37:17.062Z,45.72
2018-04-23T02:37:49.105Z,45.62
2018-04-23T02:38:21.110Z,45.62
2018-04-23T02:38:53.181Z,45.53
2018-04-23T02:39:25.279Z,45.72
2018-04-23T02:39:57.368Z,45.72
2018-04-23T02:40:29.417Z,45.62
2018-04-23T02:41:01.423Z,45.34
2018-04-23T02:41:33.466Z,45.82
2018-04-23T02:42:05.532Z,45.72
2018-04-23T02:42:37.585Z,45.82
2018-04-23T02:43:09.607Z,45.82
2018-04-23T02:43:41.687Z,45.72
2018-04-23T02:44:13.734Z,45.24
2018-04-23T02:44:45.743Z,45.72
2018-04-23T02:45:17.790Z,45.72
2018-04-23T02:45:49.862Z,45.62
2018-04-23T02:46:21.905Z,45.82
2018-04-23T02:46:53.934Z,45.62
2018-04-23T02:47:25.967Z,45.24
2018-04-23T02:47:57.986Z,45.34
2018-04-23T02:48:29.981Z,45.82
2018-04-23T02:49:02.010Z,45.82
2018-04-23T02:49:34.056Z,45.82
2018-04-23T02:50:06.104Z,45.24
2018-04-23T02:50:38.197Z,45.24
2018-04-23T02:51:10.238Z,46.01
2018-04-23T02:51:42.272Z,45.82
2018-04-23T02:52:14.329Z,45.24
2018-04-23T02:52:46.361Z,45.82
2018-04-23T02:53:18.417Z,45.24
2018-04-23T02:53:50.426Z,45.53
2018-04-23T02:54:22.486Z,46.2
2018-04-23T02:54:54.534Z,46.2
2018-04-23T02:55:26.574Z,45.53
2018-04-23T02:55:58.675Z,45.43
2018-04-23T02:56:30.689Z,46.01
2018-04-23T02:57:02.731Z,46.3
2018-04-23T02:57:34.743Z,45.62
2018-04-23T02:58:06.838Z,45.62
2018-04-23T02:58:38.872Z,46.3
2018-04-23T02:59:10.888Z,46.49
2018-04-23T02:59:42.919Z,46.49
2018-04-23T03:00:14.958Z,45.62
2018-04-23T03:00:46.979Z,46.49
2018-04-23T03:01:18.996Z,45.82
2018-04-23T03:01:51.106Z,45.53
2018-04-23T03:02:23.115Z,45.92
2018-04-23T03:02:55.138Z,45.53
2018-04-23T03:03:27.181Z,45.72
2018-04-23T03:03:59.216Z,45.82
2018-04-23T03:04:31.292Z,46.2
2018-04-23T03:05:03.352Z,45.82
2018-04-23T03:05:35.363Z,45.62
2018-04-23T03:06:07.411Z,45.53
2018-04-23T03:06:39.439Z,46.3
2018-04-23T03:07:11.500Z,45.62
2018-04-23T03:07:43.721Z,45.62
2018-04-23T03:08:15.869Z,45.62
2018-04-23T03:08:48.066Z,45.62
2018-04-23T03:09:20.050Z,45.72
2018-04-23T03:09:52.099Z,45.72
2018-04-23T03:10:24.204Z,45.72
2018-04-23T03:10:56.209Z,45.72
2018-04-23T03:11:28.207Z,45.72
2018-04-23T03:12:00.205Z,45.72
2018-04-23T03:12:32.292Z,45.82
2018-04-23T03:13:04.330Z,45.92
2018-04-23T03:13:36.383Z,45.72
2018-04-23T03:14:08.378Z,45.92
2018-04-23T03:14:40.376Z,45.72
2018-04-23T03:15:12.469Z,45.92
2018-04-23T03:15:44.512Z,45.72
2018-04-23T03:16:16.524Z,45.92
2018-04-23T03:16:48.596Z,45.72
2018-04-23T03:17:20.650Z,46.01
2018-04-23T03:17:52.763Z,45.82
2018-04-23T03:18:24.795Z,45.92
2018-04-23T03:18:56.771Z,45.92
2018-04-23T03:19:28.773Z,45.92
2018-04-23T03:20:00.801Z,45.92
2018-04-23T03:20:32.860Z,45.82
2018-04-23T03:21:06.220Z,45.72
2018-04-23T03:21:38.256Z,45.92
2018-04-23T03:22:10.325Z,45.92
2018-04-23T03:22:42.424Z,45.92
2018-04-23T03:23:14.495Z,45.92
2018-04-23T03:23:46.547Z,46.01
2018-04-23T03:24:18.629Z,46.59
2018-04-23T03:24:50.707Z,45.92
2018-04-23T03:25:22.704Z,46.49
2018-04-23T03:25:54.760Z,46.01
2018-04-23T03:26:26.853Z,45.82
2018-04-23T03:26:58.919Z,46.49
2018-04-23T03:27:30.947Z,46.4
2018-04-23T03:28:03.018Z,46.59
2018-04-23T03:28:35.052Z,46.59
2018-04-23T03:29:07.114Z,46.49
2018-04-23T03:29:39.148Z,46.2
2018-04-23T03:30:11.219Z,46.49
2018-04-23T03:30:43.269Z,46.4
2018-04-23T03:31:15.305Z,46.3
2018-04-23T03:31:47.314Z,46.4
2018-04-23T03:32:19.322Z,46.4
2018-04-23T03:32:51.370Z,46.3
2018-04-23T03:33:23.348Z,46.01
2018-04-23T03:33:55.451Z,46.11
2018-04-23T03:34:27.456Z,46.3
2018-04-23T03:34:59.491Z,46.4
2018-04-23T03:35:31.520Z,46.3
2018-04-23T03:36:03.593Z,46.3
2018-04-23T03:36:35.630Z,46.3
2018-04-23T03:37:07.702Z,46.3
2018-04-23T03:37:39.799Z,46.3
2018-04-23T03:38:11.856Z,46.4
2018-04-23T03:38:43.887Z,46.3
2018-04-23T03:39:15.963Z,46.3
2018-04-23T03:39:47.959Z,46.2
2018-04-23T03:40:19.961Z,46.4
2018-04-23T03:40:51.992Z,46.28
2018-04-23T03:41:24.162Z,46.28
2018-04-23T03:41:56.155Z,46.3
2018-04-23T03:42:28.144Z,46.3
2018-04-23T03:43:00.233Z,46.3
2018-04-23T03:43:32.277Z,46.28
2018-04-23T03:44:04.359Z,46.3
2018-04-23T03:44:36.345Z,46.4
2018-04-23T03:45:08.361Z,46.4
2018-04-23T03:45:40.360Z,46.49
2018-04-23T03:46:12.381Z,46.47
2018-04-23T03:46:44.441Z,46.3
2018-04-23T03:47:16.523Z,46.4
2018-04-23T03:47:48.551Z,46.4
2018-04-23T03:48:20.590Z,46.3
2018-04-23T03:48:52.579Z,46.4
2018-04-23T03:49:24.614Z,46.37
2018-04-23T03:49:56.741Z,46.49
2018-04-23T03:50:28.995Z,46.59
2018-04-23T03:51:01.020Z,46.59
2018-04-23T03:51:33.028Z,46.08
2018-04-23T03:52:05.078Z,46.3
2018-04-23T03:52:37.128Z,46.37
2018-04-23T03:53:09.200Z,46.3
2018-04-23T03:53:41.207Z,46.3
2018-04-23T03:54:13.172Z,46.3
2018-04-23T03:54:45.305Z,46.47
2018-04-23T03:55:17.317Z,46.4
2018-04-23T03:55:49.323Z,46.2
2018-04-23T03:56:21.392Z,45.92
2018-04-23T03:56:53.462Z,46.2
2018-04-23T03:57:25.496Z,46.28
2018-04-23T03:57:57.519Z,46.59
2018-04-23T03:58:29.605Z,46.08
2018-04-23T03:59:01.721Z,46.08
2018-04-23T03:59:33.750Z,46.49
2018-04-23T04:00:05.789Z,46.66
2018-04-23T04:00:37.818Z,46.37
2018-04-23T04:01:09.837Z,46.37
2018-04-23T04:01:41.848Z,46.49
2018-04-23T04:02:13.877Z,46.28
2018-04-23T04:02:45.919Z,46.18
2018-04-23T04:03:17.939Z,46.3
2018-04-23T04:03:50.768Z,45.99
2018-04-23T04:04:22.792Z,46.4
2018-04-23T04:04:54.798Z,46.18
2018-04-23T04:05:26.792Z,46.28
2018-04-23T04:05:58.829Z,46.08
2018-04-23T04:06:30.892Z,46.01
2018-04-23T04:07:02.940Z,46.28
2018-04-23T04:07:34.931Z,46.37
2018-04-23T04:08:06.989Z,46.28
2018-04-23T04:08:39.014Z,46.18
2018-04-23T04:09:11.030Z,46.47
2018-04-23T04:09:43.047Z,46.3
2018-04-23T04:10:15.058Z,46.37
2018-04-23T04:10:47.087Z,46.47
2018-04-23T04:11:19.142Z,46.47
2018-04-23T04:11:51.244Z,46.37
2018-04-23T04:12:23.398Z,46.37
2018-04-23T04:12:55.418Z,46.37
2018-04-23T04:13:27.427Z,46.28
2018-04-23T04:14:00.251Z,46.28
2018-04-23T04:14:32.249Z,46.37
2018-04-23T04:15:04.272Z,46.47
2018-04-23T04:15:36.322Z,46.47
2018-04-23T04:16:08.385Z,46.28
2018-04-23T04:16:40.400Z,46.47
2018-04-23T04:17:12.415Z,46.47
2018-04-23T04:17:44.458Z,46.66
2018-04-23T04:18:16.613Z,46.37
2018-04-23T04:18:48.642Z,46.47
2018-04-23T04:19:20.655Z,46.37
2018-04-23T04:19:52.699Z,46.56
2018-04-23T04:20:24.711Z,46.56
2018-04-23T04:20:56.728Z,46.47
2018-04-23T04:21:28.764Z,46.66
2018-04-23T04:22:00.803Z,46.76
2018-04-23T04:22:32.800Z,46.66
2018-04-23T04:23:04.834Z,46.76
2018-04-23T04:23:36.900Z,46.76
2018-04-23T04:24:08.968Z,46.47
2018-04-23T04:24:41.083Z,46.86
2018-04-23T04:25:13.084Z,46.66
2018-04-23T04:25:45.073Z,46.56
2018-04-23T04:26:17.130Z,46.86
2018-04-23T04:26:49.152Z,46.86
2018-04-23T04:27:21.225Z,46.76
2018-04-23T04:27:53.269Z,46.47
2018-04-23T04:28:25.299Z,46.66
2018-04-23T04:28:57.326Z,46.28
2018-04-23T04:29:29.367Z,46.95
2018-04-23T04:30:01.380Z,46.76
2018-04-23T04:30:33.422Z,46.56
2018-04-23T04:31:05.437Z,46.95
2018-04-23T04:31:37.453Z,46.66
2018-04-23T04:32:09.513Z,46.86
2018-04-23T04:32:41.592Z,46.56
2018-04-23T04:33:13.664Z,46.76
2018-04-23T04:33:45.692Z,46.76
2018-04-23T04:34:17.722Z,46.66
2018-04-23T04:34:49.723Z,46.66
2018-04-23T04:35:22.380Z,46.66
2018-04-23T04:35:54.436Z,46.76
2018-04-23T04:36:26.498Z,46.76
2018-04-23T04:36:58.562Z,46.76
2018-04-23T04:37:30.574Z,46.76
2018-04-23T04:38:02.602Z,46.66
2018-04-23T04:38:34.637Z,46.47
2018-04-23T04:39:06.651Z,46.66
2018-04-23T04:39:38.696Z,46.66
2018-04-23T04:40:10.774Z,46.86
2018-04-23T04:40:42.968Z,46.86
2018-04-23T04:41:14.978Z,46.86
2018-04-23T04:41:47.580Z,46.66
2018-04-23T04:42:19.629Z,46.66
2018-04-23T04:42:51.691Z,46.56
2018-04-23T04:43:23.743Z,46.76
2018-04-23T04:43:55.792Z,46.76
2018-04-23T04:44:27.938Z,46.47
2018-04-23T04:45:00.000Z,46.76
2018-04-23T04:45:32.103Z,46.86
2018-04-23T04:46:04.118Z,46.66
2018-04-23T04:46:36.153Z,46.66
2018-04-23T04:47:08.235Z,46.66
2018-04-23T04:47:40.307Z,46.66
2018-04-23T04:48:12.318Z,46.66
2018-04-23T04:48:44.392Z,46.76
2018-04-23T04:49:16.428Z,46.66
2018-04-23T04:49:48.484Z,46.66
2018-04-23T04:50:20.530Z,46.56
2018-04-23T04:50:52.556Z,46.56
2018-04-23T04:51:24.651Z,46.56
2018-04-23T04:51:56.647Z,46.56
2018-04-23T04:52:28.658Z,46.76
2018-04-23T04:53:00.751Z,46.95
2018-04-23T04:53:32.763Z,46.95
2018-04-23T04:54:04.758Z,46.76
2018-04-23T04:54:36.849Z,46.76
2018-04-23T04:55:08.893Z,46.66
2018-04-23T04:55:40.916Z,46.76
2018-04-23T04:56:12.969Z,46.86
2018-04-23T04:56:45.001Z,46.86
2018-04-23T04:57:17.004Z,46.95
2018-04-23T04:57:49.009Z,46.76
2018-04-23T04:58:21.081Z,46.86
2018-04-23T04:58:53.095Z,46.86
2018-04-23T04:59:25.101Z,46.86
2018-04-23T04:59:57.161Z,46.66
2018-04-23T05:00:29.273Z,46.66
2018-04-23T05:01:01.261Z,46.56
2018-04-23T05:01:33.323Z,46.66
2018-04-23T05:02:05.427Z,46.66
2018-04-23T05:02:37.435Z,47.07
2018-04-23T05:03:09.446Z,46.76
2018-04-23T05:03:41.440Z,46.66
2018-04-23T05:04:13.441Z,46.86
2018-04-23T05:04:45.476Z,46.86
2018-04-23T05:05:17.590Z,47.24
2018-04-23T05:05:49.599Z,46.86
2018-04-23T05:06:21.622Z,46.78
2018-04-23T05:06:53.645Z,46.86
2018-04-23T05:07:25.653Z,46.66
2018-04-23T05:07:57.683Z,46.86
2018-04-23T05:08:29.695Z,46.95
2018-04-23T05:09:01.712Z,46.66
2018-04-23T05:09:33.742Z,46.76
2018-04-23T05:10:05.727Z,46.69
2018-04-23T05:10:37.760Z,46.86
2018-04-23T05:11:09.778Z,46.76
2018-04-23T05:11:41.803Z,46.69
2018-04-23T05:12:13.842Z,46.86
2018-04-23T05:12:45.902Z,46.78
2018-04-23T05:13:17.943Z,46.76
2018-04-23T05:13:50.706Z,47.05
2018-04-23T05:14:22.818Z,47.14
2018-04-23T05:14:54.820Z,46.76
2018-04-23T05:15:26.845Z,47.14
2018-04-23T05:15:58.916Z,46.56
2018-04-23T05:16:30.927Z,47.05
2018-04-23T05:17:02.930Z,46.95
2018-04-23T05:17:34.962Z,47.14
2018-04-23T05:18:07.035Z,46.95
2018-04-23T05:18:39.066Z,46.95
2018-04-23T05:19:11.156Z,47.05
2018-04-23T05:19:43.227Z,47.05
2018-04-23T05:20:15.314Z,47.05
2018-04-23T05:20:47.302Z,47.05
2018-04-23T05:21:19.311Z,46.95
2018-04-23T05:21:51.360Z,46.69
2018-04-23T05:22:23.337Z,46.95
2018-04-23T05:22:55.373Z,46.86
2018-04-23T05:23:27.476Z,47.05
2018-04-23T05:23:59.504Z,46.86
2018-04-23T05:24:31.522Z,47.05
2018-04-23T05:25:03.584Z,46.97
2018-04-23T05:25:35.720Z,46.95
2018-04-23T05:26:07.738Z,47.05
2018-04-23T05:26:39.755Z,46.86
2018-04-23T05:27:11.792Z,47.17
2018-04-23T05:27:43.751Z,47.17
2018-04-23T05:28:15.804Z,47.05
2018-04-23T05:28:47.832Z,47.17
2018-04-23T05:29:19.868Z,47.17
2018-04-23T05:29:51.863Z,46.97
2018-04-23T05:30:23.953Z,47.07
2018-04-23T05:30:55.997Z,47.07
2018-04-23T05:31:28.012Z,47.17
2018-04-23T05:32:00.037Z,47.07
2018-04-23T05:32:32.030Z,47.07
2018-04-23T05:33:04.077Z,47.07
2018-04-23T05:33:36.102Z,46.88
2018-04-23T05:34:08.178Z,46.88
2018-04-23T05:34:40.238Z,47.07
2018-04-23T05:35:12.278Z,46.78
2018-04-23T05:35:44.292Z,47.17
2018-04-23T05:36:16.356Z,47.07
2018-04-23T05:36:48.392Z,47.07
2018-04-23T05:37:20.496Z,47.07
2018-04-23T05:37:52.604Z,47.17
2018-04-23T05:38:24.650Z,47.17
2018-04-23T05:38:56.657Z,47.17
2018-04-23T05:39:28.749Z,47.17
2018-04-23T05:40:00.792Z,47.07
2018-04-23T05:40:32.763Z,47.17
2018-04-23T05:41:04.804Z,47.17
2018-04-23T05:41:36.821Z,47.27
2018-04-23T05:42:08.758Z,47.07
2018-04-23T05:42:40.807Z,46.88
2018-04-23T05:43:12.892Z,47.07
2018-04-23T05:43:45.052Z,47.17
2018-04-23T05:44:17.053Z,47.17
2018-04-23T05:44:49.075Z,47.07
2018-04-23T05:45:21.112Z,47.07
2018-04-23T05:45:53.152Z,47.17
2018-04-23T05:46:25.156Z,46.97
2018-04-23T05:46:57.230Z,47.27
2018-04-23T05:47:29.242Z,46.97
2018-04-23T05:48:01.281Z,47.07
2018-04-23T05:48:33.356Z,47.17
2018-04-23T05:49:05.500Z,47.17
2018-04-23T05:49:37.550Z,47.07
2018-04-23T05:50:09.550Z,47.07
2018-04-23T05:50:41.576Z,47.07
2018-04-23T05:51:13.601Z,47.17
2018-04-23T05:51:45.585Z,47.07
2018-04-23T05:52:17.628Z,47.07
2018-04-23T05:52:49.664Z,47.17
2018-04-23T05:53:21.738Z,47.17
2018-04-23T05:53:53.766Z,47.17
2018-04-23T05:54:26.024Z,47.17
2018-04-23T05:54:58.161Z,47.17
2018-04-23T05:55:30.366Z,47.17
2018-04-23T05:56:02.486Z,47.07
2018-04-23T05:56:34.638Z,47.17
2018-04-23T05:57:06.818Z,47.07
2018-04-23T05:57:39.048Z,47.07
2018-04-23T05:58:11.091Z,47.17
2018-04-23T05:58:43.519Z,47.09
2018-04-23T05:59:15.655Z,47.17
2018-04-23T05:59:47.817Z,47.09
2018-04-23T06:00:20.230Z,47.19
2018-04-23T06:00:52.715Z,47.09
2018-04-23T06:01:25.056Z,47
2018-04-23T06:01:57.282Z,46.81
2018-04-23T06:02:29.332Z,47
2018-04-23T06:03:01.382Z,47.29
2018-04-23T06:03:33.581Z,46.9
2018-04-23T06:04:05.695Z,46.9
2018-04-23T06:04:37.780Z,47
2018-04-23T06:05:09.884Z,47
2018-04-23T06:05:42.014Z,47
2018-04-23T06:06:14.088Z,47
2018-04-23T06:06:46.237Z,47
2018-04-23T06:07:18.839Z,47
2018-04-23T06:07:50.871Z,47.19
2018-04-23T06:08:22.915Z,46.9
2018-04-23T06:08:55.084Z,47.19
2018-04-23T06:09:27.175Z,47.19
2018-04-23T06:09:59.259Z,47.09
2018-04-23T06:10:31.244Z,47.09
2018-04-23T06:11:03.289Z,47.19
2018-04-23T06:11:35.310Z,47.19
2018-04-23T06:12:07.358Z,47.09
2018-04-23T06:12:39.379Z,47.19
2018-04-23T06:13:11.418Z,47.19
2018-04-23T06:13:43.472Z,47.09
2018-04-23T06:14:15.496Z,47.29
2018-04-23T06:14:47.553Z,47
2018-04-23T06:15:19.644Z,47.38
2018-04-23T06:15:51.603Z,47.29
2018-04-23T06:16:23.640Z,47.19
2018-04-23T06:16:55.753Z,47.09
2018-04-23T06:17:27.833Z,47.29
2018-04-23T06:17:59.934Z,47.09
2018-04-23T06:18:31.959Z,47.38
2018-04-23T06:19:03.974Z,47.29
2018-04-23T06:19:36.013Z,47.29
2018-04-23T06:20:08.059Z,47.29
2018-04-23T06:20:40.113Z,47.38
2018-04-23T06:21:12.121Z,47.38
2018-04-23T06:21:44.184Z,47.29
2018-04-23T06:22:16.257Z,47.29
2018-04-23T06:22:48.313Z,47.29
2018-04-23T06:23:20.390Z,47.29
2018-04-23T06:23:52.416Z,47.19
2018-04-23T06:24:24.462Z,47.38
2018-04-23T06:24:56.430Z,47.48
2018-04-23T06:25:28.475Z,47.38
2018-04-23T06:26:00.626Z,47.29
2018-04-23T06:26:32.752Z,47.38
2018-04-23T06:27:04.713Z,47.48
2018-04-23T06:27:36.732Z,47.48
2018-04-23T06:28:08.800Z,47.19
2018-04-23T06:28:40.916Z,47.38
2018-04-23T06:29:12.982Z,47.38
2018-04-23T06:29:45.033Z,47.48
2018-04-23T06:30:17.040Z,47.29
2018-04-23T06:30:49.049Z,47.38
2018-04-23T06:31:21.075Z,47.38
2018-04-23T06:31:53.106Z,47.38
2018-04-23T06:32:25.116Z,47.48
2018-04-23T06:32:57.150Z,47.19
2018-04-23T06:33:29.159Z,47.29
2018-04-23T06:34:01.955Z,47.38
2018-04-23T06:34:33.941Z,47.38
2018-04-23T06:35:05.981Z,47.38
2018-04-23T06:35:37.988Z,47.38
2018-04-23T06:36:10.022Z,47.58
2018-04-23T06:36:42.136Z,47.38
2018-04-23T06:37:14.172Z,47.29
2018-04-23T06:37:46.184Z,47.48
2018-04-23T06:38:18.308Z,47.38
2018-04-23T06:38:50.344Z,47.38
2018-04-23T06:39:22.398Z,47.38
2018-04-23T06:39:55.158Z,47.48
2018-04-23T06:40:27.189Z,47.48
2018-04-23T06:40:59.256Z,47.48
2018-04-23T06:41:31.826Z,47.38
2018-04-23T06:42:03.817Z,47.29
2018-04-23T06:42:35.847Z,47.29
2018-04-23T06:43:07.847Z,47.29
2018-04-23T06:43:39.875Z,47.38
2018-04-23T06:44:11.882Z,47.19
2018-04-23T06:44:43.900Z,47.29
2018-04-23T06:45:15.934Z,47.29
2018-04-23T06:45:47.997Z,47.38
2018-04-23T06:46:20.100Z,47.38
2018-04-23T06:46:52.139Z,47.41
2018-04-23T06:47:24.137Z,47.38
2018-04-23T06:47:56.170Z,47.48
2018-04-23T06:48:28.208Z,47.48
2018-04-23T06:49:00.252Z,47.48
2018-04-23T06:49:32.267Z,47.29
2018-04-23T06:50:04.345Z,47.38
2018-04-23T06:50:36.408Z,47.48
2018-04-23T06:51:08.476Z,47.38
2018-04-23T06:51:40.497Z,47.22
2018-04-23T06:52:12.556Z,47.29
2018-04-23T06:52:44.617Z,47.19
2018-04-23T06:53:16.673Z,47.48
2018-04-23T06:53:48.712Z,47.41
2018-04-23T06:54:20.714Z,47.6
2018-04-23T06:54:52.726Z,47.41